createdAt,value
2023-02-11T00:00:03.645Z,66.38
2023-02-11T00:02:31.876Z,65.85
2023-02-11T00:04:58.816Z,74.93
2023-02-11T00:07:25.580Z,71.75
2023-02-11T00:09:52.408Z,68.80
2023-02-11T00:12:20.546Z,66.32
2023-02-11T00:14:47.458Z,68.22
2023-02-11T00:17:14.534Z,65.80
2023-02-11T00:19:41.499Z,65.03
2023-02-11T00:22:08.343Z,76.30
2023-02-11T00:24:36.113Z,68.00
2023-02-11T00:27:02.792Z,63.50
2023-02-11T00:29:30.978Z,67.32
2023-02-11T00:31:57.720Z,67.15
2023-02-11T00:34:25.081Z,68.70
2023-02-11T00:36:51.740Z,62.55
2023-02-11T00:39:18.389Z,60.83
2023-02-11T00:41:45.064Z,66.78
2023-02-11T00:44:11.784Z,65.45
2023-02-11T00:46:39.889Z,65.35
2023-02-11T00:49:06.789Z,64.43
2023-02-11T00:51:33.473Z,62.70
2023-02-11T00:54:00.242Z,60.30
2023-02-11T00:56:27.049Z,60.92
2023-02-11T00:58:53.847Z,57.97
2023-02-11T01:01:20.851Z,59.83
2023-02-11T01:03:49.103Z,59.33
2023-02-11T01:06:16.465Z,64.10
2023-02-11T01:08:43.688Z,60.42
2023-02-11T01:11:14.740Z,59.13
2023-02-11T01:13:42.235Z,60.50
2023-02-11T01:16:10.843Z,64.97
2023-02-11T01:18:38.561Z,61.47
2023-02-11T01:21:06.742Z,57.90
2023-02-11T01:23:33.648Z,61.75
2023-02-11T01:26:00.328Z,59.22
2023-02-11T01:28:28.795Z,61.58
2023-02-11T01:30:56.118Z,62.80
2023-02-11T01:33:23.283Z,59.65
2023-02-11T01:35:50.638Z,62.10
2023-02-11T01:38:21.185Z,56.35
2023-02-11T01:40:49.737Z,54.78
2023-02-11T01:43:16.712Z,56.42
2023-02-11T01:46:12.608Z,60.97
2023-02-11T01:48:43.216Z,57.38
2023-02-11T01:51:16.546Z,63.55
2023-02-11T01:53:46.499Z,64.15
2023-02-11T01:56:13.158Z,60.40
2023-02-11T01:58:42.747Z,61.38
2023-02-11T02:03:42.381Z,60.33
2023-02-11T02:06:16.665Z,59.40
2023-02-11T02:08:51.162Z,56.33
2023-02-11T02:11:18.190Z,60.97
2023-02-11T02:13:45.226Z,60.33
2023-02-11T02:16:13.498Z,52.33
2023-02-11T02:18:48.290Z,60.03
2023-02-11T02:22:14.124Z,55.30
2023-02-11T02:24:59.226Z,61.70
2023-02-11T02:27:55.329Z,56.85
2023-02-11T02:31:15.618Z,56.83
2023-02-11T02:33:51.262Z,51.78
2023-02-11T02:36:24.080Z,56.45
2023-02-11T02:38:55.597Z,54.30
2023-02-11T02:41:27.181Z,54.30
2023-02-11T02:43:54.485Z,50.13
2023-02-11T02:46:25.428Z,49.25
2023-02-11T02:48:54.990Z,50.67
2023-02-11T02:51:34.174Z,51.28
2023-02-11T02:54:17.442Z,50.25
2023-02-11T02:56:48.525Z,50.08
2023-02-11T02:59:27.367Z,47.67
2023-02-11T03:02:05.343Z,48.80
2023-02-11T03:04:38.161Z,47.72
2023-02-11T03:07:14.256Z,49.65
2023-02-11T03:09:45.934Z,46.15
2023-02-11T03:12:14.590Z,45.13
2023-02-11T03:14:41.623Z,41.38
2023-02-11T03:17:10.045Z,45.17
2023-02-11T03:19:41.257Z,46.05
2023-02-11T03:22:13.178Z,44.85
2023-02-11T03:24:42.020Z,43.38
2023-02-11T03:27:15.927Z,43.55
2023-02-11T03:29:49.665Z,46.97
2023-02-11T03:32:23.412Z,44.40
2023-02-11T03:34:56.409Z,47.45
2023-02-11T03:37:28.926Z,45.55
2023-02-11T03:40:00.312Z,48.63
2023-02-11T03:42:32.055Z,48.95
2023-02-11T03:45:03.680Z,49.33
2023-02-11T03:47:33.909Z,47.42
2023-02-11T03:50:05.036Z,48.38
2023-02-11T03:52:34.159Z,51.03
2023-02-11T03:55:03.203Z,53.33
2023-02-11T03:57:30.075Z,47.95
2023-02-11T03:59:58.393Z,48.33
2023-02-11T04:02:29.301Z,43.25
2023-02-11T04:04:56.497Z,48.47
2023-02-11T04:07:24.920Z,48.67
2023-02-11T04:09:52.329Z,44.72
2023-02-11T04:12:19.205Z,49.75
2023-02-11T04:14:46.015Z,45.47
2023-02-11T04:17:13.269Z,48.30
2023-02-11T04:19:39.984Z,50.55
2023-02-11T04:22:07.423Z,46.33
2023-02-11T04:24:35.555Z,47.40
2023-02-11T04:27:02.490Z,48.95
2023-02-11T04:29:29.138Z,47.33
2023-02-11T04:31:55.918Z,46.40
2023-02-11T04:34:22.777Z,48.22
2023-02-11T04:36:49.425Z,52.22
2023-02-11T04:39:16.171Z,46.08
2023-02-11T04:41:44.374Z,49.00
2023-02-11T04:44:11.155Z,49.03
2023-02-11T04:46:37.843Z,47.05
2023-02-11T04:49:04.498Z,50.97
2023-02-11T04:51:31.187Z,54.70
2023-02-11T04:53:57.875Z,52.63
2023-02-11T04:56:24.545Z,49.35
2023-02-11T04:58:52.605Z,47.92
2023-02-11T05:01:19.380Z,54.70
2023-02-11T05:03:46.167Z,50.58
2023-02-11T05:06:13.249Z,46.00
2023-02-11T05:08:40.009Z,49.15
2023-02-11T05:11:08.015Z,46.30
2023-02-11T05:13:34.833Z,57.05
2023-02-11T05:16:03.100Z,53.83
2023-02-11T05:18:29.766Z,54.83
2023-02-11T05:20:56.659Z,50.15
2023-02-11T05:23:23.471Z,53.03
2023-02-11T05:25:50.480Z,45.65
2023-02-11T05:28:17.347Z,54.03
2023-02-11T05:30:44.118Z,53.20
2023-02-11T05:33:12.271Z,55.08
2023-02-11T05:35:38.975Z,53.05
2023-02-11T05:38:05.640Z,49.50
2023-02-11T05:40:32.409Z,53.25
2023-02-11T05:42:59.139Z,52.97
2023-02-11T05:45:25.866Z,52.13
2023-02-11T05:47:52.525Z,47.92
2023-02-11T05:50:20.968Z,52.85
2023-02-11T05:52:47.666Z,49.45
2023-02-11T05:55:14.615Z,47.50
2023-02-11T05:57:41.338Z,48.90
2023-02-11T06:00:09.384Z,46.65
2023-02-11T06:02:36.193Z,47.08
2023-02-11T06:05:03.173Z,45.88
2023-02-11T06:07:31.217Z,48.40
2023-02-11T06:09:57.967Z,48.33
2023-02-11T06:12:24.721Z,46.65
2023-02-11T06:14:51.398Z,50.30
2023-02-11T06:17:18.162Z,52.50
2023-02-11T06:19:44.858Z,47.58
2023-02-11T06:22:11.617Z,54.22
2023-02-11T06:24:58.957Z,49.85
2023-02-11T06:27:26.333Z,51.33
2023-02-11T06:29:52.989Z,49.35
2023-02-11T06:32:39.498Z,49.72
2023-02-11T06:35:09.986Z,47.20
2023-02-11T06:37:38.133Z,48.47
2023-02-11T06:40:07.357Z,55.28
2023-02-11T06:42:34.102Z,52.28
2023-02-11T06:45:00.740Z,55.67
2023-02-11T06:47:27.388Z,51.05
2023-02-11T06:49:54.057Z,51.28
2023-02-11T06:52:20.757Z,55.65
2023-02-11T06:54:47.425Z,55.97
2023-02-11T06:57:15.465Z,52.15
2023-02-11T06:59:42.292Z,50.30
2023-02-11T07:02:09.915Z,53.00
2023-02-11T07:04:36.598Z,53.17
2023-02-11T07:07:03.323Z,55.63
2023-02-11T07:09:30.011Z,55.85
2023-02-11T07:11:56.695Z,55.30
2023-02-11T07:14:24.986Z,50.50
2023-02-11T07:16:51.699Z,56.95
2023-02-11T07:19:18.439Z,50.60
2023-02-11T07:21:45.134Z,43.10
2023-02-11T07:24:12.910Z,45.00
2023-02-11T07:26:41.119Z,44.15
2023-02-11T07:29:07.777Z,40.75
2023-02-11T07:31:36.037Z,42.28
2023-02-11T07:34:02.924Z,38.25
2023-02-11T07:36:30.741Z,44.60
2023-02-11T07:38:57.430Z,43.10
2023-02-11T07:41:25.712Z,38.90
2023-02-11T07:43:52.482Z,38.25
2023-02-11T07:46:21.512Z,39.63
2023-02-11T07:48:50.043Z,41.28
2023-02-11T07:51:18.953Z,38.92
2023-02-11T07:53:46.252Z,36.72
2023-02-11T07:56:14.607Z,35.60
2023-02-11T07:58:41.654Z,35.38
2023-02-11T08:01:10.249Z,37.72
2023-02-11T08:03:38.101Z,37.08
2023-02-11T08:06:08.145Z,48.05
2023-02-11T08:08:34.888Z,45.92
2023-02-11T08:11:06.595Z,52.42
2023-02-11T08:13:33.494Z,53.55
2023-02-11T08:16:00.207Z,54.42
2023-02-11T08:18:26.873Z,58.88
2023-02-11T08:20:53.555Z,55.78
2023-02-11T08:23:21.619Z,54.58
2023-02-11T08:25:48.303Z,60.30
2023-02-11T08:28:15.056Z,54.90
2023-02-11T08:30:41.767Z,51.45
2023-02-11T08:33:08.467Z,49.35
2023-02-11T08:35:35.572Z,51.90
2023-02-11T08:38:02.226Z,41.83
2023-02-11T08:40:30.295Z,49.78
2023-02-11T08:42:57.222Z,47.67
2023-02-11T08:45:23.868Z,46.28
2023-02-11T08:47:50.538Z,42.22
2023-02-11T08:50:17.351Z,43.30
2023-02-11T08:52:44.057Z,42.08
2023-02-11T08:55:11.154Z,42.70
2023-02-11T08:57:39.259Z,41.25
2023-02-11T09:00:07.651Z,34.28
2023-02-11T09:02:34.432Z,35.70
2023-02-11T09:05:01.114Z,33.70
2023-02-11T09:07:28.503Z,35.22
2023-02-11T09:09:55.164Z,36.58
2023-02-11T09:12:21.853Z,38.95
2023-02-11T09:14:49.915Z,39.50
2023-02-11T09:17:16.574Z,37.17
2023-02-11T09:19:43.217Z,36.05
2023-02-11T09:22:09.981Z,36.75
2023-02-11T09:24:36.730Z,39.60
2023-02-11T09:27:03.558Z,36.45
2023-02-11T09:29:30.310Z,41.47
2023-02-11T09:31:58.460Z,35.00
2023-02-11T09:34:25.156Z,34.15
2023-02-11T09:36:51.791Z,35.83
2023-02-11T09:39:19.350Z,32.30
2023-02-11T09:42:24.725Z,32.95
2023-02-11T09:44:52.368Z,34.97
2023-02-11T09:47:26.839Z,27.88
2023-02-11T09:50:00.194Z,29.92
2023-02-11T09:52:36.127Z,29.05
2023-02-11T09:55:05.237Z,26.23
2023-02-11T09:57:35.011Z,31.50
2023-02-11T10:00:15.980Z,28.42
2023-02-11T10:02:57.255Z,32.95
2023-02-11T10:05:36.788Z,33.40
2023-02-11T10:08:11.768Z,34.10
2023-02-11T10:10:50.449Z,34.65
2023-02-11T10:13:42.535Z,29.97
2023-02-11T10:16:21.756Z,36.70
2023-02-11T10:19:17.492Z,42.10
2023-02-11T10:21:57.450Z,39.03
2023-02-11T10:24:25.049Z,31.48
2023-02-11T10:26:52.381Z,26.42
2023-02-11T10:29:33.529Z,29.45
2023-02-11T10:32:04.155Z,34.72
2023-02-11T10:34:32.320Z,37.30
2023-02-11T10:36:58.937Z,27.42
2023-02-11T10:39:27.742Z,22.27
2023-02-11T10:41:57.768Z,23.73
2023-02-11T10:44:28.852Z,21.85
2023-02-11T10:46:57.374Z,22.45
2023-02-11T10:49:38.862Z,21.73
2023-02-11T10:52:27.786Z,22.27
2023-02-11T10:55:00.579Z,20.30
2023-02-11T10:57:31.230Z,19.15
2023-02-11T11:00:00.345Z,17.80
2023-02-11T11:02:29.983Z,18.55
2023-02-11T11:07:28.144Z,16.60
2023-02-11T11:09:58.378Z,18.70
2023-02-11T11:12:28.528Z,21.83
2023-02-11T11:14:56.301Z,22.00
2023-02-11T11:17:22.989Z,20.00
2023-02-11T11:19:49.597Z,18.92
2023-02-11T11:22:22.697Z,16.95
2023-02-11T11:24:50.226Z,15.00
2023-02-11T11:27:19.414Z,18.73
2023-02-11T11:29:49.422Z,17.73
2023-02-11T11:32:20.782Z,19.40
2023-02-11T11:34:51.306Z,19.98
2023-02-11T11:37:26.032Z,16.35
2023-02-11T11:39:57.457Z,19.35
2023-02-11T11:42:28.475Z,18.50
2023-02-11T11:44:59.254Z,16.20
2023-02-11T11:47:33.964Z,17.10
2023-02-11T11:50:26.851Z,16.83
2023-02-11T11:53:04.015Z,17.00
2023-02-11T11:55:35.248Z,15.40
2023-02-11T11:58:02.074Z,18.67
2023-02-11T12:00:37.744Z,20.17
2023-02-11T12:03:29.477Z,18.75
2023-02-11T12:06:11.635Z,19.25
2023-02-11T12:08:49.351Z,15.18
2023-02-11T12:11:26.024Z,17.08
2023-02-11T12:14:16.930Z,19.05
2023-02-11T12:16:55.553Z,21.02
2023-02-11T12:20:01.872Z,21.00
2023-02-11T12:22:41.207Z,19.73
2023-02-11T12:25:23.786Z,17.95
2023-02-11T12:27:56.734Z,17.45
2023-02-11T12:30:41.758Z,17.98
2023-02-11T12:33:19.832Z,18.15
2023-02-11T12:35:56.341Z,17.85
2023-02-11T12:38:38.974Z,18.33
2023-02-11T12:41:23.454Z,22.92
2023-02-11T12:43:50.612Z,18.10
2023-02-11T12:46:34.388Z,19.35
2023-02-11T12:49:24.269Z,22.30
2023-02-11T12:52:13.936Z,18.55
2023-02-11T12:57:18.100Z,19.50
2023-02-11T12:59:51.920Z,21.85
2023-02-11T13:02:28.145Z,19.60
2023-02-11T13:05:00.157Z,19.70
2023-02-11T13:07:31.605Z,17.88
2023-02-11T13:10:01.799Z,17.50
2023-02-11T13:12:33.623Z,18.30
2023-02-11T13:15:06.343Z,23.80
2023-02-11T13:17:37.982Z,17.10
2023-02-11T13:20:15.075Z,18.50
2023-02-11T13:22:46.858Z,18.42
2023-02-11T13:25:22.482Z,18.83
2023-02-11T13:27:57.801Z,17.95
2023-02-11T13:30:28.634Z,20.35
2023-02-11T13:33:16.315Z,19.15
2023-02-11T13:35:45.904Z,19.20
2023-02-11T13:40:45.699Z,21.60
2023-02-11T13:43:22.434Z,21.88
2023-02-11T13:45:50.330Z,21.70
2023-02-11T13:48:22.793Z,21.85
2023-02-11T13:50:52.110Z,20.98
2023-02-11T13:53:20.265Z,24.98
2023-02-11T13:55:49.692Z,19.73
2023-02-11T13:58:32.935Z,20.15
2023-02-11T14:00:59.619Z,23.17
2023-02-11T14:03:32.309Z,21.90
2023-02-11T14:06:17.195Z,20.30
2023-02-11T14:09:00.125Z,19.63
2023-02-11T14:11:48.902Z,15.57
2023-02-11T14:14:22.306Z,17.27
2023-02-11T14:17:29.435Z,16.08
2023-02-11T14:19:56.194Z,16.85
2023-02-11T14:22:26.270Z,16.85
2023-02-11T14:24:56.379Z,18.75
2023-02-11T14:27:33.444Z,17.58
2023-02-11T14:30:13.492Z,18.70
2023-02-11T14:32:58.190Z,17.95
2023-02-11T14:35:33.479Z,18.08
2023-02-11T14:38:10.000Z,17.55
2023-02-11T14:40:46.433Z,20.35
2023-02-11T14:43:18.692Z,15.48
2023-02-11T14:45:51.686Z,18.08
2023-02-11T14:48:20.141Z,15.80
2023-02-11T14:50:51.297Z,15.80
2023-02-11T14:53:21.392Z,16.80
2023-02-11T14:55:49.693Z,19.60
2023-02-11T14:58:18.517Z,18.02
2023-02-11T15:00:52.902Z,19.80
2023-02-11T15:03:34.444Z,17.83
2023-02-11T15:06:05.593Z,19.63
2023-02-11T15:08:34.644Z,17.15
2023-02-11T15:11:03.663Z,14.77
2023-02-11T15:13:31.813Z,13.10
2023-02-11T15:16:05.162Z,15.57
2023-02-11T15:18:35.367Z,14.10
2023-02-11T15:21:02.197Z,14.52
2023-02-11T15:23:30.587Z,17.80
2023-02-11T15:25:57.502Z,15.25
2023-02-11T15:28:26.831Z,17.35
2023-02-11T15:30:58.850Z,16.80
2023-02-11T15:33:27.122Z,19.02
2023-02-11T15:35:53.768Z,15.45
2023-02-11T15:38:20.406Z,14.70
2023-02-11T15:40:56.478Z,16.52
2023-02-11T15:43:23.221Z,18.38
2023-02-11T15:45:57.540Z,17.55
2023-02-11T15:48:27.851Z,20.27
2023-02-11T15:50:58.699Z,15.65
2023-02-11T15:53:29.949Z,18.02
2023-02-11T15:56:07.573Z,15.63
2023-02-11T15:58:37.084Z,17.33
2023-02-11T16:01:04.410Z,19.70
2023-02-11T16:03:31.323Z,18.67
2023-02-11T16:06:16.521Z,19.13
2023-02-11T16:08:55.564Z,18.10
2023-02-11T16:11:26.159Z,25.10
2023-02-11T16:13:52.809Z,20.02
2023-02-11T16:16:21.849Z,26.63
2023-02-11T16:19:03.326Z,21.70
2023-02-11T16:21:35.857Z,19.45
2023-02-11T16:24:02.817Z,16.77
2023-02-11T16:26:33.933Z,18.45
2023-02-11T16:29:10.473Z,19.60
2023-02-11T16:31:40.054Z,18.88
2023-02-11T16:34:14.035Z,16.63
2023-02-11T16:36:42.538Z,16.02
2023-02-11T16:39:10.311Z,18.15
2023-02-11T16:41:37.019Z,19.52
2023-02-11T16:44:03.812Z,19.73
2023-02-11T16:46:31.786Z,19.33
2023-02-11T16:49:06.175Z,18.40
2023-02-11T16:51:32.824Z,17.77
2023-02-11T16:54:00.795Z,21.80
2023-02-11T16:56:27.465Z,21.15
2023-02-11T16:58:54.122Z,18.90
2023-02-11T17:01:20.870Z,17.95
2023-02-11T17:03:47.990Z,20.08
2023-02-11T17:06:14.889Z,16.85
2023-02-11T17:08:41.533Z,19.88
2023-02-11T17:11:09.631Z,16.33
2023-02-11T17:13:36.276Z,17.63
2023-02-11T17:16:02.993Z,17.23
2023-02-11T17:18:29.692Z,16.42
2023-02-11T17:20:56.332Z,15.75
2023-02-11T17:23:23.025Z,18.13
2023-02-11T17:25:55.476Z,19.02
2023-02-11T17:28:23.581Z,15.68
2023-02-11T17:30:50.308Z,16.85
2023-02-11T17:33:17.130Z,16.13
2023-02-11T17:35:43.778Z,21.73
2023-02-11T17:38:10.436Z,16.23
2023-02-11T17:40:37.204Z,15.25
2023-02-11T17:43:04.524Z,17.48
2023-02-11T17:45:32.721Z,17.67
2023-02-11T17:47:59.477Z,16.40
2023-02-11T17:50:29.176Z,18.05
2023-02-11T17:52:56.700Z,16.85
2023-02-11T17:55:23.360Z,16.33
2023-02-11T17:57:50.021Z,18.63
2023-02-11T18:00:17.340Z,22.30
2023-02-11T18:02:45.388Z,19.48
2023-02-11T18:05:12.130Z,17.23
2023-02-11T18:07:38.802Z,16.95
2023-02-11T18:10:06.614Z,20.77
2023-02-11T18:12:33.264Z,18.10
2023-02-11T18:14:59.970Z,19.50
2023-02-11T18:17:26.639Z,19.98
2023-02-11T18:19:57.557Z,19.00
2023-02-11T18:22:25.015Z,18.27
2023-02-11T18:24:52.379Z,18.55
2023-02-11T18:27:19.168Z,17.02
2023-02-11T18:29:45.809Z,22.17
2023-02-11T18:32:12.703Z,31.77
2023-02-11T18:34:40.087Z,19.67
2023-02-11T18:37:08.378Z,20.40
2023-02-11T18:39:35.060Z,19.77
2023-02-11T18:42:01.708Z,18.60
2023-02-11T18:44:28.557Z,23.92
2023-02-11T18:46:55.257Z,24.00
2023-02-11T18:49:21.906Z,20.05
2023-02-11T18:51:48.658Z,21.00
2023-02-11T18:54:16.717Z,23.45
2023-02-11T18:56:43.433Z,25.42
2023-02-11T18:59:10.066Z,21.25
2023-02-11T19:01:36.799Z,18.83
2023-02-11T19:04:04.841Z,22.00
2023-02-11T19:06:33.911Z,18.25
2023-02-11T19:09:02.383Z,20.08
2023-02-11T19:11:32.236Z,24.58
2023-02-11T19:13:58.811Z,21.70
2023-02-11T19:16:25.459Z,22.08
2023-02-11T19:18:52.166Z,25.65
2023-02-11T19:21:18.839Z,24.30
2023-02-11T19:23:45.522Z,28.77
2023-02-11T19:26:12.168Z,29.35
2023-02-11T19:28:40.294Z,29.48
2023-02-11T19:31:08.635Z,30.40
2023-02-11T19:33:35.655Z,24.52
2023-02-11T19:36:04.349Z,23.00
2023-02-11T19:38:31.124Z,22.90
2023-02-11T19:40:58.251Z,23.15
2023-02-11T19:43:25.115Z,24.45
2023-02-11T19:45:53.540Z,31.63
2023-02-11T19:48:20.357Z,25.50
2023-02-11T19:50:47.132Z,26.80
2023-02-11T19:53:13.737Z,35.83
2023-02-11T19:55:40.428Z,40.33
2023-02-11T19:58:07.166Z,36.30
2023-02-11T20:00:33.806Z,32.05
2023-02-11T20:03:01.935Z,33.28
2023-02-11T20:05:28.685Z,31.45
2023-02-11T20:07:55.310Z,36.60
2023-02-11T20:10:23.252Z,45.92
2023-02-11T20:12:49.901Z,51.03
2023-02-11T20:15:16.558Z,65.05
2023-02-11T20:17:43.250Z,59.08
2023-02-11T20:20:11.953Z,65.93
2023-02-11T20:22:38.562Z,72.45
2023-02-11T20:25:06.118Z,79.15
2023-02-11T20:27:32.769Z,78.90
2023-02-11T20:29:59.400Z,75.45
2023-02-11T20:32:26.072Z,82.05
2023-02-11T20:34:52.737Z,78.90
2023-02-11T20:37:20.798Z,74.25
2023-02-11T20:39:47.424Z,81.13
2023-02-11T20:42:14.324Z,80.57
2023-02-11T20:44:41.279Z,71.10
2023-02-11T20:47:07.944Z,69.82
2023-02-11T20:49:34.656Z,76.45
2023-02-11T20:52:01.284Z,72.75
2023-02-11T20:54:29.400Z,70.85
2023-02-11T20:56:56.192Z,68.30
2023-02-11T20:59:23.037Z,69.00
2023-02-11T21:01:51.472Z,68.70
2023-02-11T21:04:20.256Z,69.95
2023-02-11T21:06:49.425Z,73.63
2023-02-11T21:09:17.813Z,63.67
2023-02-11T21:11:46.347Z,66.05
2023-02-11T21:14:13.390Z,66.63
2023-02-11T21:16:40.416Z,68.82
2023-02-11T21:19:07.711Z,62.95
2023-02-11T21:21:35.456Z,67.35
2023-02-11T21:24:02.130Z,56.72
2023-02-11T21:26:29.024Z,61.15
2023-02-11T21:28:57.183Z,64.57
2023-02-11T21:31:29.628Z,57.35
2023-02-11T21:33:57.007Z,54.13
2023-02-11T21:36:23.902Z,53.63
2023-02-11T21:38:50.553Z,58.20
2023-02-11T21:41:17.713Z,61.42
2023-02-11T21:43:44.677Z,56.40
2023-02-11T21:46:14.839Z,52.05
2023-02-11T21:48:41.960Z,51.72
2023-02-11T21:51:11.236Z,48.38
2023-02-11T21:53:37.877Z,45.28
2023-02-11T21:56:07.172Z,52.13
2023-02-11T21:58:33.818Z,45.92
2023-02-11T22:01:00.599Z,43.47
2023-02-11T22:03:28.673Z,42.30
2023-02-11T22:05:55.763Z,40.35
2023-02-11T22:08:22.590Z,41.25
2023-02-11T22:10:49.268Z,42.42
2023-02-11T22:13:15.948Z,41.30
2023-02-11T22:15:42.553Z,42.42
2023-02-11T22:18:09.241Z,42.10
2023-02-11T22:20:37.293Z,48.08
2023-02-11T22:23:04.013Z,44.35
2023-02-11T22:25:30.628Z,42.97
2023-02-11T22:27:57.330Z,46.08
2023-02-11T22:30:23.998Z,44.85
2023-02-11T22:32:50.650Z,50.22
2023-02-11T22:35:17.347Z,46.15
2023-02-11T22:37:45.360Z,52.38
2023-02-11T22:40:13.315Z,47.65
2023-02-11T22:42:40.005Z,52.08
2023-02-11T22:45:07.695Z,45.78
2023-02-11T22:47:34.324Z,49.63
2023-02-11T22:50:01.004Z,46.90
2023-02-11T22:52:27.647Z,50.10
2023-02-11T22:54:55.686Z,50.55
2023-02-11T22:57:22.341Z,55.47
2023-02-11T22:59:49.029Z,53.33
2023-02-11T23:02:15.773Z,51.08
2023-02-11T23:04:42.634Z,56.65
2023-02-11T23:07:09.310Z,53.45
2023-02-11T23:09:35.981Z,56.10
2023-02-11T23:12:04.537Z,55.42
2023-02-11T23:14:31.462Z,54.40
2023-02-11T23:16:58.204Z,61.13
2023-02-11T23:19:25.069Z,55.60
2023-02-11T23:21:52.022Z,56.30
2023-02-11T23:24:18.637Z,56.72
2023-02-11T23:26:45.513Z,55.35
2023-02-11T23:29:13.999Z,58.10
2023-02-11T23:31:43.146Z,59.00
2023-02-11T23:34:10.182Z,52.35
2023-02-11T23:36:37.458Z,53.67
2023-02-11T23:39:04.778Z,61.25
2023-02-11T23:41:31.556Z,55.80
2023-02-11T23:43:58.359Z,55.47
2023-02-11T23:46:27.582Z,57.35
2023-02-11T23:48:54.326Z,56.17
2023-02-11T23:51:21.182Z,56.22
2023-02-11T23:53:48.144Z,55.42
2023-02-11T23:56:18.731Z,58.67
2023-02-11T23:58:48.110Z,53.00
